createdAt,value
2023-04-16T00:01:43.874Z,65.96
2023-04-16T00:04:10.601Z,65.56
2023-04-16T00:06:37.233Z,65.78
2023-04-16T00:09:03.660Z,65.57
2023-04-16T00:11:30.102Z,65.14
2023-04-16T00:13:56.534Z,65.42
2023-04-16T00:16:23.043Z,65.88
2023-04-16T00:18:49.569Z,68.21
2023-04-16T00:21:16.159Z,68.29
2023-04-16T00:23:42.702Z,67.45
2023-04-16T00:26:09.209Z,65.63
2023-04-16T00:28:41.769Z,65.66
2023-04-16T00:31:08.382Z,66.07
2023-04-16T00:33:34.909Z,67.00
2023-04-16T00:36:01.454Z,67.50
2023-04-16T00:38:28.070Z,68.46
2023-04-16T00:40:54.622Z,69.13
2023-04-16T00:43:21.074Z,68.92
2023-04-16T00:45:47.586Z,69.74
2023-04-16T00:50:54.448Z,69.69
2023-04-16T00:53:20.998Z,69.93
2023-04-16T00:55:47.666Z,70.32
2023-04-16T00:58:14.170Z,70.17
2023-04-16T01:00:40.659Z,69.94
2023-04-16T01:03:07.303Z,69.38
2023-04-16T01:05:33.889Z,69.30
2023-04-16T01:08:03.106Z,69.30
2023-04-16T01:10:29.850Z,69.70
2023-04-16T01:12:56.264Z,68.83
2023-04-16T01:15:22.680Z,69.35
2023-04-16T01:17:49.288Z,69.73
2023-04-16T01:20:15.767Z,69.33
2023-04-16T01:22:42.225Z,68.97
2023-04-16T01:25:08.687Z,68.99
2023-04-16T01:27:35.217Z,68.22
2023-04-16T01:30:01.696Z,68.07
2023-04-16T01:32:30.884Z,68.35
2023-04-16T01:35:04.677Z,68.93
2023-04-16T01:37:42.058Z,68.66
2023-04-16T01:40:09.213Z,69.67
2023-04-16T01:42:35.673Z,68.93
2023-04-16T01:45:02.115Z,68.83
2023-04-16T01:47:28.634Z,68.31
2023-04-16T01:49:55.089Z,68.92
2023-04-16T01:52:21.531Z,69.07
2023-04-16T01:54:48.057Z,68.29
2023-04-16T01:57:14.540Z,68.28
2023-04-16T01:59:41.217Z,68.32
2023-04-16T02:02:07.760Z,68.05
2023-04-16T02:04:34.259Z,67.58
2023-04-16T02:07:00.731Z,67.58
2023-04-16T02:09:27.211Z,67.26
2023-04-16T02:11:53.665Z,67.82
2023-04-16T02:14:20.145Z,67.08
2023-04-16T02:16:46.666Z,66.71
2023-04-16T02:19:13.324Z,66.29
2023-04-16T02:21:39.807Z,67.95
2023-04-16T02:24:06.237Z,68.64
2023-04-16T02:26:32.765Z,69.01
2023-04-16T02:28:59.364Z,69.39
2023-04-16T02:31:25.891Z,69.57
2023-04-16T02:33:52.385Z,69.41
2023-04-16T02:36:23.161Z,68.13
2023-04-16T02:38:49.651Z,68.24
2023-04-16T02:41:16.088Z,67.71
2023-04-16T02:43:42.681Z,68.49
2023-04-16T02:46:09.275Z,67.38
2023-04-16T02:48:35.803Z,67.14
2023-04-16T02:51:02.279Z,67.58
2023-04-16T02:53:28.860Z,68.58
2023-04-16T02:55:55.386Z,69.07
2023-04-16T02:58:21.879Z,69.47
2023-04-16T03:00:48.377Z,70.61
2023-04-16T03:03:14.881Z,71.66
2023-04-16T03:05:41.394Z,70.85
2023-04-16T03:08:07.989Z,70.22
2023-04-16T03:10:34.514Z,70.49
2023-04-16T03:13:00.952Z,67.13
2023-04-16T03:15:27.481Z,66.74
2023-04-16T03:17:54.024Z,66.03
2023-04-16T03:20:23.192Z,66.86
2023-04-16T03:22:49.669Z,67.32
2023-04-16T03:25:16.091Z,68.45
2023-04-16T03:27:42.535Z,69.63
2023-04-16T03:30:09.010Z,70.06
2023-04-16T03:32:35.530Z,69.45
2023-04-16T03:35:02.024Z,69.62
2023-04-16T03:37:28.649Z,70.38
2023-04-16T03:39:55.152Z,70.06
2023-04-16T03:42:21.669Z,70.65
2023-04-16T03:44:48.195Z,70.34
2023-04-16T03:47:14.706Z,69.87
2023-04-16T03:49:41.177Z,69.92
2023-04-16T03:52:07.696Z,69.49
2023-04-16T03:54:34.137Z,69.00
2023-04-16T03:57:00.565Z,69.60
2023-04-16T03:59:26.995Z,69.26
2023-04-16T04:01:53.483Z,68.71
2023-04-16T04:04:20.275Z,68.42
2023-04-16T04:06:46.830Z,67.52
2023-04-16T04:09:13.316Z,66.49
2023-04-16T04:11:39.806Z,66.25
2023-04-16T04:14:06.263Z,65.96
2023-04-16T04:16:32.849Z,66.57
2023-04-16T04:18:59.373Z,66.79
2023-04-16T04:21:25.823Z,66.68
2023-04-16T04:23:53.229Z,67.01
2023-04-16T04:26:20.412Z,67.31
2023-04-16T04:28:46.879Z,67.94
2023-04-16T04:31:13.366Z,67.54
2023-04-16T04:33:39.804Z,67.75
2023-04-16T04:36:06.315Z,68.30
2023-04-16T04:38:32.780Z,68.32
2023-04-16T04:40:59.336Z,68.38
2023-04-16T04:43:34.406Z,68.63
2023-04-16T04:46:00.946Z,68.33
2023-04-16T04:48:27.434Z,68.46
2023-04-16T04:50:53.900Z,69.32
2023-04-16T04:53:20.408Z,68.64
2023-04-16T04:55:48.082Z,67.86
2023-04-16T04:58:17.267Z,66.63
2023-04-16T05:00:43.856Z,66.34
2023-04-16T05:03:10.436Z,65.48
2023-04-16T05:05:36.960Z,65.56
2023-04-16T05:08:03.424Z,65.49
2023-04-16T05:10:29.943Z,64.86
2023-04-16T05:15:36.682Z,65.11
2023-04-16T05:18:03.305Z,65.16
2023-04-16T05:20:29.806Z,66.91
2023-04-16T05:22:56.237Z,67.00
2023-04-16T05:25:22.691Z,66.76
2023-04-16T05:27:49.177Z,65.47
2023-04-16T05:30:15.793Z,64.75
2023-04-16T05:32:42.380Z,64.45
2023-04-16T05:35:17.188Z,64.87
2023-04-16T05:37:44.083Z,64.68
2023-04-16T05:40:10.559Z,64.47
2023-04-16T05:42:36.935Z,64.33
2023-04-16T05:45:03.652Z,64.01
2023-04-16T05:47:30.204Z,63.73
2023-04-16T05:49:56.729Z,64.10
2023-04-16T05:52:23.241Z,64.23
2023-04-16T05:54:49.722Z,63.65
2023-04-16T05:57:16.088Z,63.57
2023-04-16T05:59:42.693Z,63.53
2023-04-16T06:02:09.415Z,64.60
2023-04-16T06:04:35.923Z,64.53
2023-04-16T06:07:02.365Z,64.49
2023-04-16T06:12:09.134Z,64.94
2023-04-16T06:14:35.736Z,65.18
2023-04-16T06:17:02.350Z,64.90
2023-04-16T06:19:28.920Z,65.54
2023-04-16T06:21:55.405Z,65.85
2023-04-16T06:24:21.866Z,66.46
2023-04-16T06:26:48.330Z,66.81
2023-04-16T06:29:14.793Z,67.00
2023-04-16T06:31:41.343Z,67.23
2023-04-16T06:34:07.850Z,68.00
2023-04-16T06:36:36.721Z,68.08
2023-04-16T06:39:03.256Z,68.02
2023-04-16T06:41:29.772Z,68.25
2023-04-16T06:43:56.291Z,69.05
2023-04-16T06:46:22.757Z,68.64
2023-04-16T06:48:49.227Z,68.47
2023-04-16T06:51:15.675Z,68.46
2023-04-16T06:53:42.090Z,67.77
2023-04-16T06:56:08.541Z,68.15
2023-04-16T06:58:35.003Z,68.10
2023-04-16T07:01:01.540Z,68.69
2023-04-16T07:03:28.186Z,68.20
2023-04-16T07:05:54.817Z,67.94
2023-04-16T07:08:21.380Z,68.59
2023-04-16T07:10:47.830Z,68.24
2023-04-16T07:13:14.264Z,67.75
2023-04-16T07:15:40.759Z,68.23
2023-04-16T07:18:07.321Z,67.42
2023-04-16T07:20:33.757Z,67.25
2023-04-16T07:23:00.184Z,67.61
2023-04-16T07:25:26.650Z,67.08
2023-04-16T07:27:53.168Z,66.73
2023-04-16T07:30:19.675Z,65.68
2023-04-16T07:32:46.285Z,65.38
2023-04-16T07:35:19.964Z,65.47
2023-04-16T07:37:46.546Z,65.63
2023-04-16T07:40:13.080Z,66.05
2023-04-16T07:42:39.704Z,67.11
2023-04-16T07:45:06.477Z,67.12
2023-04-16T07:47:34.259Z,66.54
2023-04-16T07:50:00.858Z,66.47
2023-04-16T07:52:27.374Z,66.98
2023-04-16T07:54:59.762Z,66.13
2023-04-16T07:57:26.306Z,66.00
2023-04-16T07:59:52.796Z,66.85
2023-04-16T08:02:19.402Z,66.86
2023-04-16T08:04:46.114Z,67.23
2023-04-16T08:07:17.719Z,67.48
2023-04-16T08:09:44.320Z,66.53
2023-04-16T08:12:10.797Z,66.19
2023-04-16T08:14:37.277Z,66.13
2023-04-16T08:17:03.800Z,66.39
2023-04-16T08:19:31.572Z,67.08
2023-04-16T08:21:58.025Z,66.67
2023-04-16T08:24:24.438Z,67.42
2023-04-16T08:26:50.968Z,67.40
2023-04-16T08:29:17.656Z,67.08
2023-04-16T08:31:44.152Z,67.12
2023-04-16T08:34:10.589Z,66.58
2023-04-16T08:36:36.975Z,66.28
2023-04-16T08:39:03.911Z,66.39
2023-04-16T08:41:33.586Z,67.15
2023-04-16T08:43:59.994Z,66.73
2023-04-16T08:46:27.618Z,65.68
2023-04-16T08:48:54.018Z,65.78
2023-04-16T08:51:20.430Z,65.35
2023-04-16T08:53:46.853Z,66.34
2023-04-16T08:56:13.309Z,65.60
2023-04-16T08:58:39.748Z,65.35
2023-04-16T09:01:06.244Z,66.00
2023-04-16T09:03:35.667Z,65.43
2023-04-16T09:06:02.765Z,65.71
2023-04-16T09:08:29.165Z,64.82
2023-04-16T09:10:55.722Z,65.11
2023-04-16T09:13:22.169Z,65.64
2023-04-16T09:15:48.593Z,65.32
2023-04-16T09:18:15.098Z,64.04
2023-04-16T09:20:41.541Z,64.45
2023-04-16T09:23:07.970Z,65.50
2023-04-16T09:25:34.481Z,65.38
2023-04-16T09:28:00.953Z,65.75
2023-04-16T09:30:27.422Z,66.15
2023-04-16T09:32:53.954Z,65.72
2023-04-16T09:35:21.500Z,65.40
2023-04-16T09:37:47.982Z,65.42
2023-04-16T09:40:14.484Z,65.27
2023-04-16T09:42:40.889Z,65.81
2023-04-16T09:45:07.345Z,67.16
2023-04-16T09:47:33.723Z,65.95
2023-04-16T09:50:00.235Z,66.27
2023-04-16T09:52:29.379Z,65.76
2023-04-16T09:54:55.826Z,66.51
2023-04-16T09:57:22.318Z,66.24
2023-04-16T09:59:52.460Z,65.51
2023-04-16T10:02:23.209Z,66.83
2023-04-16T10:04:50.788Z,66.00
2023-04-16T10:07:26.396Z,65.35
2023-04-16T10:09:52.864Z,65.35
2023-04-16T10:12:19.296Z,65.97
2023-04-16T10:14:46.916Z,66.54
2023-04-16T10:17:14.794Z,65.76
2023-04-16T10:19:41.219Z,65.49
2023-04-16T10:22:07.658Z,65.70
2023-04-16T10:24:34.155Z,65.70
2023-04-16T10:27:01.888Z,66.11
2023-04-16T10:29:28.428Z,66.36
2023-04-16T10:32:02.435Z,66.37
2023-04-16T10:34:28.896Z,66.76
2023-04-16T10:36:55.362Z,66.83
2023-04-16T10:39:22.452Z,66.66
2023-04-16T10:41:48.839Z,66.01
2023-04-16T10:44:15.344Z,66.39
2023-04-16T10:46:41.866Z,66.50
2023-04-16T10:49:09.946Z,66.19
2023-04-16T10:51:36.589Z,67.10
2023-04-16T10:54:03.076Z,67.11
2023-04-16T10:56:29.593Z,66.72
2023-04-16T10:58:56.309Z,68.04
2023-04-16T11:01:22.945Z,67.59
2023-04-16T11:03:49.559Z,67.89
2023-04-16T11:06:16.112Z,68.15
2023-04-16T11:08:53.918Z,68.61
2023-04-16T11:11:21.589Z,68.64
2023-04-16T11:13:48.154Z,68.37
2023-04-16T11:16:14.671Z,68.52
2023-04-16T11:21:31.621Z,67.79
2023-04-16T11:26:48.635Z,67.85
2023-04-16T11:29:15.039Z,67.20
2023-04-16T11:34:25.507Z,68.53
2023-04-16T11:36:52.093Z,68.69
2023-04-16T11:39:19.564Z,68.12
2023-04-16T11:41:46.104Z,68.13
2023-04-16T11:44:12.673Z,67.15
2023-04-16T11:46:39.195Z,67.81
2023-04-16T11:49:06.891Z,67.51
2023-04-16T11:51:33.321Z,68.08
2023-04-16T11:53:59.801Z,68.16
2023-04-16T11:56:26.160Z,68.92
2023-04-16T11:58:52.538Z,68.08
2023-04-16T12:01:18.961Z,68.37
2023-04-16T12:03:45.818Z,68.24
2023-04-16T12:06:12.622Z,68.81
2023-04-16T12:08:39.075Z,67.84
2023-04-16T12:11:06.489Z,67.28
2023-04-16T12:13:32.959Z,67.33
2023-04-16T12:15:59.446Z,67.54
2023-04-16T12:18:25.957Z,67.89
2023-04-16T12:23:43.379Z,66.85
2023-04-16T12:26:09.779Z,66.49
2023-04-16T12:28:36.197Z,67.23
2023-04-16T12:31:03.959Z,66.64
2023-04-16T12:33:32.683Z,66.84
2023-04-16T12:35:59.129Z,66.77
2023-04-16T12:38:26.302Z,66.20
2023-04-16T12:40:53.158Z,65.21
2023-04-16T12:43:19.574Z,64.36
2023-04-16T12:45:49.178Z,64.45
2023-04-16T12:48:16.963Z,63.27
2023-04-16T12:50:43.312Z,62.66
2023-04-16T12:53:09.800Z,63.06
2023-04-16T12:55:36.215Z,62.28
2023-04-16T13:00:44.024Z,60.83
2023-04-16T13:03:10.593Z,60.45
2023-04-16T13:05:37.174Z,59.28
2023-04-16T13:08:04.617Z,59.80
2023-04-16T13:10:32.068Z,59.87
2023-04-16T13:12:58.464Z,60.46
2023-04-16T13:15:38.204Z,59.74
2023-04-16T13:18:04.751Z,59.16
2023-04-16T13:20:32.548Z,58.00
2023-04-16T13:22:59.081Z,57.54
2023-04-16T13:25:25.506Z,57.64
2023-04-16T13:27:52.030Z,57.75
2023-04-16T13:30:18.640Z,57.93
2023-04-16T13:32:47.083Z,58.00
2023-04-16T13:35:15.894Z,58.49
2023-04-16T13:37:42.364Z,59.01
2023-04-16T13:40:08.937Z,58.46
2023-04-16T13:42:38.555Z,59.02
2023-04-16T13:48:03.182Z,56.95
2023-04-16T13:50:36.305Z,55.45
2023-04-16T13:53:02.700Z,55.88
2023-04-16T13:55:31.442Z,54.40
2023-04-16T13:58:08.026Z,55.04
2023-04-16T14:03:19.445Z,55.15
2023-04-16T14:05:45.931Z,55.61
2023-04-16T14:08:12.412Z,56.02
2023-04-16T14:10:38.849Z,56.85
2023-04-16T14:13:05.351Z,57.42
2023-04-16T14:15:31.911Z,58.01
2023-04-16T14:17:58.514Z,58.72
2023-04-16T14:20:25.087Z,57.79
2023-04-16T14:22:51.620Z,56.74
2023-04-16T14:25:18.212Z,57.88
2023-04-16T14:27:44.860Z,58.31
2023-04-16T14:30:11.400Z,57.28
2023-04-16T14:32:38.108Z,57.33
2023-04-16T14:35:06.758Z,57.30
2023-04-16T14:37:33.311Z,57.17
2023-04-16T14:40:02.564Z,56.04
2023-04-16T14:42:28.991Z,55.67
2023-04-16T14:44:55.799Z,55.63
2023-04-16T14:47:25.376Z,56.16
2023-04-16T14:49:51.884Z,57.43
2023-04-16T14:52:18.344Z,56.43
2023-04-16T14:54:45.122Z,56.31
2023-04-16T14:57:11.634Z,56.54
2023-04-16T14:59:38.129Z,56.52
2023-04-16T15:02:04.747Z,57.13
2023-04-16T15:04:31.846Z,57.90
2023-04-16T15:06:58.504Z,57.73
2023-04-16T15:09:24.986Z,57.33
2023-04-16T15:11:55.086Z,57.76
2023-04-16T15:14:21.502Z,57.54
2023-04-16T15:16:48.012Z,57.06
2023-04-16T15:19:16.702Z,58.11
2023-04-16T15:21:43.189Z,58.26
2023-04-16T15:24:17.557Z,58.74
2023-04-16T15:26:43.997Z,58.91
2023-04-16T15:29:10.508Z,59.01
2023-04-16T15:31:38.070Z,58.74
2023-04-16T15:34:06.161Z,58.24
2023-04-16T15:36:32.873Z,58.63
2023-04-16T15:39:00.235Z,59.09
2023-04-16T15:41:26.672Z,59.20
2023-04-16T15:43:53.198Z,59.70
2023-04-16T15:46:19.665Z,58.76
2023-04-16T15:48:46.135Z,58.59
2023-04-16T15:51:12.524Z,58.54
2023-04-16T15:53:41.088Z,58.20
2023-04-16T15:56:07.586Z,57.77
2023-04-16T15:58:34.034Z,57.96
2023-04-16T16:01:00.453Z,57.93
2023-04-16T16:03:26.990Z,57.64
2023-04-16T16:05:53.658Z,57.29
2023-04-16T16:08:20.201Z,57.26
2023-04-16T16:10:46.890Z,57.12
2023-04-16T16:13:13.401Z,57.72
2023-04-16T16:15:39.980Z,57.57
2023-04-16T16:18:06.593Z,58.19
2023-04-16T16:20:33.120Z,58.29
2023-04-16T16:22:59.514Z,59.39
2023-04-16T16:25:26.986Z,58.84
2023-04-16T16:27:53.510Z,58.69
2023-04-16T16:30:19.970Z,58.45
2023-04-16T16:32:46.535Z,58.02
2023-04-16T16:35:12.927Z,58.03
2023-04-16T16:37:39.457Z,57.68
2023-04-16T16:40:06.052Z,58.07
2023-04-16T16:42:32.553Z,58.59
2023-04-16T16:44:58.996Z,58.32
2023-04-16T16:47:25.789Z,58.46
2023-04-16T16:49:53.250Z,58.98
2023-04-16T16:52:22.366Z,58.87
2023-04-16T16:54:48.797Z,59.17
2023-04-16T16:57:15.916Z,58.94
2023-04-16T16:59:42.321Z,59.29
2023-04-16T17:02:08.932Z,59.98
2023-04-16T17:04:35.587Z,60.26
2023-04-16T17:07:02.214Z,60.63
2023-04-16T17:09:28.657Z,60.29
2023-04-16T17:14:38.424Z,59.53
2023-04-16T17:17:04.917Z,59.79
2023-04-16T17:19:32.697Z,59.46
2023-04-16T17:21:59.223Z,59.66
2023-04-16T17:24:26.012Z,60.65
2023-04-16T17:26:52.476Z,60.43
2023-04-16T17:29:18.903Z,60.63
2023-04-16T17:31:45.329Z,60.12
2023-04-16T17:34:11.921Z,60.00
2023-04-16T17:36:38.482Z,59.13
2023-04-16T17:39:04.934Z,58.46
2023-04-16T17:41:31.390Z,58.63
2023-04-16T17:43:57.827Z,59.09
2023-04-16T17:46:24.323Z,58.33
2023-04-16T17:48:52.077Z,58.73
2023-04-16T17:51:18.479Z,58.16
2023-04-16T17:53:45.043Z,59.11
2023-04-16T17:56:11.551Z,58.93
2023-04-16T17:58:40.974Z,59.40
2023-04-16T18:01:07.483Z,59.71
2023-04-16T18:03:34.163Z,58.74
2023-04-16T18:06:04.309Z,58.35
2023-04-16T18:08:35.708Z,58.97
2023-04-16T18:11:02.149Z,58.77
2023-04-16T18:13:28.645Z,59.39
2023-04-16T18:15:55.216Z,59.50
2023-04-16T18:18:21.694Z,59.26
2023-04-16T18:20:48.252Z,58.96
2023-04-16T18:23:14.819Z,59.48
2023-04-16T18:25:43.466Z,59.12
2023-04-16T18:28:09.998Z,58.91
2023-04-16T18:30:40.036Z,58.52
2023-04-16T18:33:34.190Z,58.54
2023-04-16T18:35:53.443Z,58.87
2023-04-16T18:38:19.995Z,58.87
2023-04-16T18:40:46.674Z,59.64
2023-04-16T18:43:15.159Z,59.97
2023-04-16T18:45:43.031Z,59.91
2023-04-16T18:48:09.491Z,60.04
2023-04-16T18:50:36.052Z,60.12
2023-04-16T18:53:02.669Z,60.83
2023-04-16T18:55:29.211Z,61.65
2023-04-16T18:57:55.732Z,61.58
2023-04-16T19:00:22.286Z,60.74
2023-04-16T19:02:48.966Z,60.82
2023-04-16T19:05:15.444Z,59.82
2023-04-16T19:07:41.938Z,60.28
2023-04-16T19:10:08.419Z,59.81
2023-04-16T19:12:34.956Z,60.26
2023-04-16T19:15:01.401Z,59.51
2023-04-16T19:17:27.860Z,60.02
2023-04-16T19:19:54.339Z,59.41
2023-04-16T19:22:28.693Z,55.66
2023-04-16T19:24:55.074Z,56.31
2023-04-16T19:27:21.488Z,56.57
2023-04-16T19:29:47.974Z,54.33
2023-04-16T19:32:14.523Z,56.66
2023-04-16T19:34:40.966Z,58.13
2023-04-16T19:37:12.136Z,58.61
2023-04-16T19:39:38.698Z,59.41
2023-04-16T19:42:06.056Z,59.47
2023-04-16T19:44:32.551Z,59.57
2023-04-16T19:46:59.000Z,59.51
2023-04-16T19:49:25.514Z,59.68
2023-04-16T19:52:05.185Z,59.56
2023-04-16T19:54:31.752Z,58.63
2023-04-16T19:56:58.605Z,58.50
2023-04-16T19:59:26.049Z,57.99
2023-04-16T20:01:54.667Z,58.32
2023-04-16T20:04:21.101Z,58.94
2023-04-16T20:06:47.602Z,59.23
2023-04-16T20:09:24.905Z,59.01
2023-04-16T20:11:51.377Z,59.89
2023-04-16T20:14:17.867Z,60.72
2023-04-16T20:16:44.535Z,59.83
2023-04-16T20:19:11.195Z,59.91
2023-04-16T20:21:37.733Z,59.61
2023-04-16T20:24:04.140Z,59.57
2023-04-16T20:26:30.530Z,59.33
2023-04-16T20:28:59.170Z,59.08
2023-04-16T20:31:25.888Z,59.96
2023-04-16T20:33:52.651Z,60.47
2023-04-16T20:36:19.118Z,60.48
2023-04-16T20:38:45.596Z,59.59
2023-04-16T20:41:12.096Z,60.06
2023-04-16T20:43:39.740Z,60.29
2023-04-16T20:46:06.228Z,60.28
2023-04-16T20:48:32.763Z,59.13
2023-04-16T20:51:00.562Z,59.63
2023-04-16T20:53:29.080Z,59.68
2023-04-16T20:55:55.567Z,59.20
2023-04-16T21:01:02.361Z,60.36
2023-04-16T21:03:28.967Z,60.48
2023-04-16T21:05:55.727Z,59.88
2023-04-16T21:08:22.297Z,59.73
2023-04-16T21:10:48.787Z,59.58
2023-04-16T21:13:15.297Z,60.12
2023-04-16T21:15:46.693Z,59.47
2023-04-16T21:18:13.192Z,59.93
2023-04-16T21:20:39.697Z,60.26
2023-04-16T21:23:06.171Z,59.44
2023-04-16T21:25:32.691Z,59.42
2023-04-16T21:27:59.205Z,60.28
2023-04-16T21:30:25.714Z,59.72
2023-04-16T21:32:52.183Z,59.17
2023-04-16T21:35:18.658Z,58.76
2023-04-16T21:37:45.124Z,57.77
2023-04-16T21:40:11.720Z,59.13
2023-04-16T21:42:38.230Z,59.24
2023-04-16T21:45:04.704Z,59.04
2023-04-16T21:47:31.277Z,58.99
2023-04-16T21:49:57.889Z,58.16
2023-04-16T21:52:24.340Z,58.72
2023-04-16T21:54:50.928Z,57.63
2023-04-16T21:57:17.445Z,58.64
2023-04-16T21:59:43.913Z,57.60
2023-04-16T22:02:10.520Z,57.86
2023-04-16T22:04:44.059Z,58.07
2023-04-16T22:07:10.557Z,57.82
2023-04-16T22:09:37.014Z,58.00
2023-04-16T22:12:03.647Z,59.14
2023-04-16T22:14:30.137Z,58.90
2023-04-16T22:16:56.712Z,58.29
2023-04-16T22:19:23.292Z,58.68
2023-04-16T22:21:51.930Z,58.57
2023-04-16T22:24:18.339Z,58.48
2023-04-16T22:26:44.843Z,58.71
2023-04-16T22:29:11.627Z,58.42
2023-04-16T22:31:38.370Z,58.66
2023-04-16T22:34:04.913Z,59.29
2023-04-16T22:36:31.489Z,59.11
2023-04-16T22:38:57.968Z,58.78
2023-04-16T22:41:24.434Z,59.05
2023-04-16T22:43:52.459Z,58.89
2023-04-16T22:46:19.036Z,59.64
2023-04-16T22:48:45.595Z,59.24
2023-04-16T22:51:12.077Z,58.17
2023-04-16T22:53:38.571Z,58.07
2023-04-16T22:56:05.123Z,58.46
2023-04-16T22:58:32.914Z,58.46
2023-04-16T23:00:59.566Z,58.58
2023-04-16T23:03:26.264Z,58.18
2023-04-16T23:05:52.772Z,58.33
2023-04-16T23:08:19.253Z,58.19
2023-04-16T23:10:53.101Z,59.09
2023-04-16T23:13:19.557Z,58.84
2023-04-16T23:15:46.101Z,58.59
2023-04-16T23:18:12.623Z,58.56
2023-04-16T23:20:39.059Z,58.77
2023-04-16T23:23:05.498Z,58.94
2023-04-16T23:25:31.956Z,59.28
2023-04-16T23:27:58.405Z,58.73
2023-04-16T23:30:24.867Z,58.81
2023-04-16T23:32:51.408Z,58.87
2023-04-16T23:35:17.815Z,59.42
2023-04-16T23:37:44.297Z,58.98
2023-04-16T23:40:10.775Z,59.57
2023-04-16T23:42:37.272Z,58.99
2023-04-16T23:45:03.692Z,59.28
2023-04-16T23:47:30.181Z,59.56
2023-04-16T23:49:56.661Z,60.03
2023-04-16T23:52:23.144Z,59.61
2023-04-16T23:54:49.576Z,60.45
2023-04-16T23:57:16.103Z,60.42
2023-04-16T23:59:42.585Z,60.09
